Time;durP1;ratioP1;P1;durP2;ratioP2;P2;SDS_P1;SDS_P2;PMS_P1;PMS_P2;Temp;Humidity;BMP_temperature;BMP_pressure;BME280_temperature;BME280_humidity;BME280_pressure;Samples;Min_cycle;Max_cycle;Signal;HPM_P1;HPM_P2
2022/12/27 00:00:08;;;;;;;149.70;81.47;;;281.60;2278.40;;;;;;5091433;28;20111;-72
2022/12/27 00:02:37;;;;;;;309.45;169.90;;;256.90;2252.80;;;;;;5091764;28;20093;-69
2022/12/27 00:05:04;;;;;;;123.43;67.85;;;256.80;2252.80;;;;;;5091678;28;20066;-69
2022/12/27 00:07:30;;;;;;;127.40;65.28;;;256.70;2252.80;;;;;;5091294;28;20044;-71
2022/12/27 00:09:57;;;;;;;135.18;75.10;;;256.70;2252.80;;;;;;5090911;28;20500;-69
2022/12/27 00:12:23;;;;;;;188.02;101.80;;;256.50;2252.80;;;;;;5091348;28;20062;-71
2022/12/27 00:14:49;;;;;;;131.27;66.78;;;256.50;2252.80;;;;;;5091176;28;20051;-70
2022/12/27 00:17:15;;;;;;;111.55;56.88;;;256.60;2252.80;;;;;;5091198;28;20031;-71
2022/12/27 00:19:40;;;;;;;145.38;78.05;;;256.60;2252.80;;;;;;5091312;28;20024;-69
2022/12/27 00:22:06;;;;;;;103.15;53.42;;;256.60;2252.80;;;;;;5090841;28;20423;-71
2022/12/27 00:24:34;;;;;;;105.25;56.38;;;256.80;2252.80;;;;;;5091167;28;20085;-70
2022/12/27 00:27:00;;;;;;;142.95;76.22;;;256.90;2252.80;;;;;;5091070;28;20497;-71
2022/12/27 00:29:25;;;;;;;61.25;31.98;;;256.90;2252.80;;;;;;5091135;28;20048;-69
2022/12/27 00:31:51;;;;;;;35.67;19.42;;;256.90;2252.80;;;;;;5090965;28;20020;-70
2022/12/27 00:34:17;;;;;;;16.10;10.38;;;281.60;2278.40;;;;;;5090660;28;20024;-70
2022/12/27 00:36:43;;;;;;;11.88;6.68;;;281.80;2278.40;;;;;;5090980;28;20043;-69
2022/12/27 00:39:09;;;;;;;21.67;12.80;;;282.10;2278.40;;;;;;5090696;28;20468;-70
2022/12/27 00:41:35;;;;;;;45.25;27.90;;;282.20;2278.40;;;;;;5090704;28;20103;-70
2022/12/27 00:44:01;;;;;;;96.13;54.58;;;282.10;2278.40;;;;;;5090469;28;20133;-69
2022/12/27 00:46:27;;;;;;;121.63;70.25;;;282.10;2278.40;;;;;;5090632;28;20027;-69
2022/12/27 00:48:54;;;;;;;88.43;50.95;;;282.10;2278.40;;;;;;5090726;28;20028;-70
2022/12/27 00:51:22;;;;;;;64.68;38.08;;;282.10;2278.40;;;;;;5090808;28;20035;-68
2022/12/27 00:53:49;;;;;;;22.77;18.40;;;282.20;2278.40;;;;;;5090779;28;20024;-69
2022/12/27 00:56:20;;;;;;;110.13;61.95;;;282.40;2278.40;;;;;;5090710;28;20020;-70
2022/12/27 00:58:46;;;;;;;142.50;83.63;;;282.50;2278.40;;;;;;5090642;28;20513;-69
2022/12/27 01:01:15;;;;;;;205.35;118.00;;;282.50;2278.40;;;;;;5090850;28;20035;-70
2022/12/27 01:03:41;;;;;;;210.18;117.65;;;307.20;2304.00;;;;;;5090565;28;20024;-70
2022/12/27 01:06:10;;;;;;;68.63;34.38;;;307.30;2304.00;;;;;;5090241;28;20051;-70
2022/12/27 01:08:36;;;;;;;31.95;19.05;;;307.30;2304.00;;;;;;5090116;28;20028;-69
2022/12/27 01:11:02;;;;;;;197.65;99.18;;;307.40;2304.00;;;;;;5090501;28;20032;-68
2022/12/27 01:13:29;;;;;;;28.45;16.85;;;307.40;2304.00;;;;;;5090131;28;20501;-69
2022/12/27 01:15:55;;;;;;;48.67;26.33;;;307.50;2304.00;;;;;;5090281;28;20039;-72
2022/12/27 01:18:21;;;;;;;47.78;23.88;;;307.60;2304.00;;;;;;5090375;28;20016;-68
2022/12/27 01:20:47;;;;;;;64.03;33.08;;;307.60;2304.00;;;;;;5090253;28;20482;-72
2022/12/27 01:23:12;;;;;;;40.80;24.50;;;307.70;2304.00;;;;;;5090321;28;20485;-69
2022/12/27 01:25:38;;;;;;;44.60;28.00;;;307.70;2304.00;;;;;;5090145;28;20028;-72
2022/12/27 01:28:04;;;;;;;71.57;37.30;;;307.80;2304.00;;;;;;5090408;28;20030;-72
2022/12/27 01:30:30;;;;;;;173.90;94.63;;;307.80;2304.00;;;;;;5090290;28;20101;-72
2022/12/27 01:32:56;;;;;;;25.35;14.50;;;307.80;2304.00;;;;;;5090094;28;20032;-68
2022/12/27 01:35:22;;;;;;;102.75;56.75;;;307.80;2304.00;;;;;;5090305;28;20032;-72
2022/12/27 01:37:47;;;;;;;55.00;35.58;;;307.80;2304.00;;;;;;5090105;28;20074;-69
2022/12/27 01:40:13;;;;;;;59.95;40.78;;;307.80;2304.00;;;;;;5090099;28;20025;-68
2022/12/27 01:42:51;;;;;;;104.55;61.90;;;307.80;2304.00;;;;;;5089779;28;20043;-69
2022/12/27 01:45:22;;;;;;;73.05;47.40;;;307.90;2304.00;;;;;;5090022;28;20028;-69
2022/12/27 01:48:00;;;;;;;25.27;16.83;;;308.00;2304.00;;;;;;5092605;28;20016;-69
2022/12/27 01:50:28;;;;;;;39.42;23.50;;;308.00;2304.00;;;;;;5094101;28;20035;-69
2022/12/27 01:53:00;;;;;;;50.72;30.55;;;308.00;2304.00;;;;;;5094075;28;20419;-69
2022/12/27 01:55:25;;;;;;;45.78;27.08;;;308.10;2304.00;;;;;;5094079;28;20598;-70
2022/12/27 01:57:54;;;;;;;45.65;29.15;;;308.10;2304.00;;;;;;5093979;28;20031;-70
2022/12/27 02:00:20;;;;;;;69.75;40.47;;;308.10;2304.00;;;;;;5093891;28;20109;-69
2022/12/27 02:02:46;;;;;;;43.45;26.85;;;308.10;2304.00;;;;;;5093941;28;20055;-69
2022/12/27 02:05:15;;;;;;;16.50;11.77;;;308.10;2304.00;;;;;;5093941;28;20377;-70
2022/12/27 02:08:09;;;;;;;12.25;7.97;;;308.10;2304.00;;;;;;5093813;28;20105;-71
2022/12/27 02:10:35;;;;;;;149.25;127.65;;;308.10;2304.00;;;;;;5093422;28;20108;-68
2022/12/27 02:13:03;;;;;;;96.88;63.30;;;308.00;2304.00;;;;;;5093938;28;20028;-69
2022/12/27 02:15:28;;;;;;;18.65;12.45;;;308.10;2304.00;;;;;;5093481;28;20033;-69
2022/12/27 02:17:54;;;;;;;33.53;27.02;;;308.10;2304.00;;;;;;5093664;28;20016;-69
2022/12/27 02:20:22;;;;;;;18.15;11.98;;;308.10;2304.00;;;;;;5093865;28;20031;-72
2022/12/27 02:25:41;;;;;;;47.45;29.33;;;332.80;2329.60;;;;;;5093530;28;20039;-70
2022/12/27 02:28:21;;;;;;;11.32;8.43;;;308.10;2304.00;;;;;;5093292;28;20038;-68
2022/12/27 02:30:52;;;;;;;98.80;60.10;;;332.90;2329.60;;;;;;5093026;28;20043;-68
2022/12/27 02:33:24;;;;;;;131.52;74.45;;;333.00;2329.60;;;;;;5093413;28;20031;-69
2022/12/27 02:36:03;;;;;;;293.77;161.27;;;333.10;2329.60;;;;;;5093317;28;20032;-68
2022/12/27 02:38:40;;;;;;;105.55;51.90;;;333.20;2329.60;;;;;;5092930;28;20027;-72
2022/12/27 02:55:08;;;;;;;185.82;101.43;;;333.40;2329.60;;;;;;5091732;28;20043;-69
2022/12/27 02:57:40;;;;;;;108.63;57.08;;;333.50;2329.60;;;;;;5091415;28;20021;-69
2022/12/27 03:03:23;;;;;;;30.25;14.75;;;333.70;2329.60;;;;;;5091580;28;20089;-68
2022/12/27 03:06:41;;;;;;;41.78;25.52;;;358.40;2329.60;;;;;;5091523;28;20034;-70
2022/12/27 03:15:54;;;;;;;25.80;16.50;;;358.70;2329.60;;;;;;5049249;28;20465;-70
2022/12/27 03:18:53;;;;;;;10.43;5.65;;;358.70;2329.60;;;;;;5049040;28;20077;-70
2022/12/27 03:27:29;;;;;;;48.58;27.95;;;358.90;2329.60;;;;;;5009415;28;20120;-70
2022/12/27 03:33:13;;;;;;;21.85;13.23;;;358.90;2329.60;;;;;;5009309;28;20077;-70
2022/12/27 03:39:07;;;;;;;52.20;30.60;;;358.90;2329.60;;;;;;5008742;28;20089;-70
2022/12/27 03:44:24;;;;;;;130.45;57.47;;;358.90;2329.60;;;;;;4968759;28;1184126;-69
2022/12/27 03:47:02;;;;;;;40.65;35.22;;;358.90;2329.60;;;;;;5009875;28;20040;-69
2022/12/27 03:49:47;;;;;;;33.60;20.10;;;359.00;2329.60;;;;;;5030920;28;20049;-69
2022/12/27 03:52:21;;;;;;;86.50;41.40;;;358.90;2329.60;;;;;;5049372;28;20476;-71
2022/12/27 03:54:49;;;;;;;203.45;106.32;;;358.90;2329.60;;;;;;5049443;28;20020;-69
2022/12/27 03:57:17;;;;;;;76.93;46.17;;;358.80;2329.60;;;;;;5053188;28;20025;-70
2022/12/27 03:59:43;;;;;;;62.92;34.85;;;358.80;2329.60;;;;;;5091971;28;20055;-70
2022/12/27 04:02:09;;;;;;;145.00;80.10;;;358.80;2329.60;;;;;;5091340;28;20016;-69
2022/12/27 04:04:36;;;;;;;71.43;40.90;;;358.80;2329.60;;;;;;5091404;28;20077;-69
2022/12/27 04:07:02;;;;;;;30.45;17.80;;;358.90;2329.60;;;;;;5091476;28;20044;-70
2022/12/27 04:36:50;;;;;;;8.95;5.55;;;359.30;2329.60;;;;;;5091396;28;20042;-70
2022/12/27 04:39:16;;;;;;;20.42;12.18;;;359.20;2329.60;;;;;;5090985;28;20384;-68
2022/12/27 04:55:30;;;;;;;11.60;7.40;;;359.10;2329.60;;;;;;5090800;28;20101;-68
2022/12/27 04:57:57;;;;;;;9.18;5.57;;;359.20;2329.60;;;;;;5090830;28;20458;-69
2022/12/27 05:03:21;;;;;;;12.00;7.20;;;359.20;2329.60;;;;;;5090558;28;20385;-70
2022/12/27 05:05:49;;;;;;;9.73;6.15;;;359.10;2329.60;;;;;;5090518;28;20027;-70
2022/12/27 05:14:01;;;;;;;20.27;13.13;;;359.30;2329.60;;;;;;5090825;28;20424;-66
2022/12/27 05:16:38;;;;;;;224.07;126.18;;;359.30;2329.60;;;;;;5090055;28;20024;-70
2022/12/27 05:19:06;;;;;;;11.50;7.63;;;359.30;2329.60;;;;;;5090311;28;20488;-65
2022/12/27 05:27:17;;;;;;;7.28;5.07;;;359.10;2329.60;;;;;;5090502;28;20093;-69
2022/12/27 05:29:43;;;;;;;9.52;5.22;;;359.10;2329.60;;;;;;5090380;28;20040;-67
2022/12/27 05:32:09;;;;;;;8.52;5.85;;;359.10;2329.60;;;;;;5089957;28;20152;-67
2022/12/27 05:34:34;;;;;;;80.50;54.83;;;359.20;2329.60;;;;;;5090315;28;20035;-65
2022/12/27 05:37:00;;;;;;;45.20;29.33;;;358.50;2329.60;;;;;;5090189;28;20024;-69
2022/12/27 05:39:26;;;;;;;35.85;24.98;;;333.60;2329.60;;;;;;5089927;28;20363;-66
2022/12/27 05:41:51;;;;;;;47.80;31.02;;;333.70;2329.60;;;;;;5090157;28;20050;-67
2022/12/27 05:44:17;;;;;;;28.65;15.93;;;333.70;2329.60;;;;;;5089648;28;20047;-69
2022/12/27 05:46:42;;;;;;;24.42;15.98;;;333.70;2329.60;;;;;;5090175;28;20030;-68
2022/12/27 05:49:08;;;;;;;34.05;24.20;;;358.40;2329.60;;;;;;5089880;28;20473;-67
2022/12/27 05:51:34;;;;;;;27.25;17.17;;;358.40;2329.60;;;;;;5090055;28;20031;-70
2022/12/27 05:53:59;;;;;;;29.98;18.05;;;333.70;2329.60;;;;;;5089787;28;20111;-69
2022/12/27 05:56:25;;;;;;;28.67;16.92;;;333.70;2329.60;;;;;;5089920;28;20462;-65
2022/12/27 05:58:54;;;;;;;21.25;16.60;;;333.60;2329.60;;;;;;5090083;28;20024;-67
2022/12/27 06:01:20;;;;;;;18.40;13.98;;;333.60;2329.60;;;;;;5089846;28;20107;-65
2022/12/27 06:03:45;;;;;;;27.05;17.15;;;333.60;2329.60;;;;;;5090020;28;20494;-69
2022/12/27 06:06:12;;;;;;;49.70;24.75;;;333.60;2329.60;;;;;;5089685;28;20378;-70
2022/12/27 06:08:38;;;;;;;40.67;26.05;;;333.60;2329.60;;;;;;5089568;28;20035;-68
2022/12/27 06:11:10;;;;;;;31.25;20.80;;;333.60;2329.60;;;;;;5089797;28;20040;-68
2022/12/27 06:13:38;;;;;;;24.15;16.63;;;333.60;2329.60;;;;;;5089624;28;20408;-66
2022/12/27 06:16:06;;;;;;;16.30;10.30;;;333.60;2329.60;;;;;;5089969;28;20114;-69
2022/12/27 06:18:35;;;;;;;11.32;8.23;;;333.50;2329.60;;;;;;5089894;28;20085;-65
2022/12/27 06:21:06;;;;;;;12.65;8.20;;;333.60;2329.60;;;;;;5089877;28;20020;-70
2022/12/27 06:23:37;;;;;;;9.98;7.13;;;333.50;2329.60;;;;;;5089621;28;20484;-69
2022/12/27 06:26:05;;;;;;;369.65;276.90;;;333.60;2329.60;;;;;;5089871;28;20024;-67
2022/12/27 06:28:31;;;;;;;22.23;14.75;;;333.60;2329.60;;;;;;5089779;28;20355;-65
2022/12/27 06:30:58;;;;;;;12.63;6.85;;;333.60;2329.60;;;;;;5089612;28;20061;-68
2022/12/27 06:33:24;;;;;;;13.82;6.30;;;333.60;2329.60;;;;;;5091445;28;20017;-65
2022/12/27 06:35:50;;;;;;;11.52;6.85;;;333.60;2329.60;;;;;;5093491;28;20027;-69
2022/12/27 06:38:15;;;;;;;9.38;5.90;;;333.60;2329.60;;;;;;5093263;28;20044;-67
2022/12/27 06:40:41;;;;;;;11.60;7.72;;;333.60;2329.60;;;;;;5093171;28;20039;-68
2022/12/27 06:43:07;;;;;;;26.00;16.55;;;333.60;2329.60;;;;;;5093016;28;20063;-69
2022/12/27 06:45:32;;;;;;;169.43;116.78;;;333.60;2329.60;;;;;;5093492;28;20046;-64
2022/12/27 06:47:58;;;;;;;36.70;25.70;;;333.60;2329.60;;;;;;5092892;28;20024;-68
2022/12/27 06:50:24;;;;;;;108.90;78.25;;;333.70;2329.60;;;;;;5093120;28;20047;-66
2022/12/27 06:52:50;;;;;;;201.45;153.80;;;333.60;2329.60;;;;;;5092804;28;20066;-68
2022/12/27 06:55:15;;;;;;;112.95;90.38;;;333.70;2329.60;;;;;;5092795;28;20226;-69
2022/12/27 06:57:41;;;;;;;29.88;22.05;;;333.70;2329.60;;;;;;5093014;28;20028;-68
2022/12/27 07:00:07;;;;;;;106.38;95.80;;;333.60;2329.60;;;;;;5092972;28;20032;-66
2022/12/27 07:02:33;;;;;;;21.70;19.67;;;333.60;2329.60;;;;;;5092877;28;20490;-70
2022/12/27 07:04:59;;;;;;;12.60;9.95;;;333.70;2329.60;;;;;;5092764;28;20059;-68
2022/12/27 07:07:25;;;;;;;14.07;10.82;;;333.60;2329.60;;;;;;5092727;28;20073;-66
2022/12/27 07:09:50;;;;;;;32.92;29.45;;;333.60;2329.60;;;;;;5092625;28;20118;-69
2022/12/27 07:12:16;;;;;;;12.55;9.90;;;333.60;2329.60;;;;;;5092580;28;20024;-68
2022/12/27 07:14:41;;;;;;;16.63;11.93;;;333.60;2329.60;;;;;;5092722;28;20038;-70
2022/12/27 07:17:07;;;;;;;24.92;15.60;;;333.60;2329.60;;;;;;5092538;28;20056;-69
2022/12/27 07:19:33;;;;;;;23.90;21.40;;;333.60;2329.60;;;;;;5092594;28;20032;-66
2022/12/27 07:21:58;;;;;;;21.15;15.77;;;333.50;2329.60;;;;;;5092458;28;20077;-71
2022/12/27 07:24:24;;;;;;;25.55;20.10;;;333.50;2329.60;;;;;;5092374;28;20020;-65
2022/12/27 07:26:50;;;;;;;20.70;16.92;;;333.50;2329.60;;;;;;5092425;28;20486;-70
2022/12/27 07:29:16;;;;;;;35.45;29.30;;;333.60;2329.60;;;;;;5092169;28;20032;-66
2022/12/27 07:31:41;;;;;;;20.92;15.57;;;333.60;2329.60;;;;;;5092442;28;20484;-71
2022/12/27 07:34:09;;;;;;;18.92;14.75;;;333.60;2329.60;;;;;;5092107;28;20028;-67
2022/12/27 07:36:38;;;;;;;15.77;12.77;;;333.60;2329.60;;;;;;5091845;28;20035;-70
2022/12/27 07:39:05;;;;;;;19.63;13.57;;;333.60;2329.60;;;;;;5092084;28;20504;-70
2022/12/27 07:41:31;;;;;;;13.00;10.20;;;333.60;2329.60;;;;;;5092214;28;20031;-69
2022/12/27 07:43:56;;;;;;;42.20;37.67;;;333.50;2329.60;;;;;;5090920;28;20123;-69
2022/12/27 07:46:24;;;;;;;26.65;21.77;;;333.60;2329.60;;;;;;5091680;28;20446;-70
2022/12/27 07:48:56;;;;;;;32.40;26.00;;;333.50;2329.60;;;;;;5091933;28;20035;-70
2022/12/27 07:51:22;;;;;;;25.73;21.73;;;333.50;2329.60;;;;;;5092159;28;20481;-67
2022/12/27 07:53:49;;;;;;;14.68;9.32;;;333.50;2329.60;;;;;;5091772;28;20458;-70
2022/12/27 07:56:18;;;;;;;18.02;13.98;;;333.50;2329.60;;;;;;5092000;28;20027;-67
2022/12/27 07:58:46;;;;;;;20.20;16.40;;;333.50;2329.60;;;;;;5093221;28;20020;-73
2022/12/27 08:01:13;;;;;;;21.30;15.85;;;333.50;2329.60;;;;;;5093292;28;20020;-71
2022/12/27 08:03:39;;;;;;;20.00;13.60;;;333.60;2329.60;;;;;;5093190;28;20024;-69
2022/12/27 08:06:06;;;;;;;20.65;15.48;;;333.70;2329.60;;;;;;5092805;28;20055;-70
2022/12/27 08:08:42;;;;;;;105.45;66.88;;;358.50;2329.60;;;;;;5091430;28;20024;-70
2022/12/27 08:11:08;;;;;;;131.55;92.88;;;358.70;2329.60;;;;;;5091318;28;20051;-70
2022/12/27 08:13:34;;;;;;;102.57;81.82;;;358.70;2329.60;;;;;;5091736;28;20055;-71
2022/12/27 08:16:00;;;;;;;40.97;30.85;;;358.60;2329.60;;;;;;5091777;28;20047;-71
2022/12/27 08:18:27;;;;;;;10.85;8.60;;;358.60;2329.60;;;;;;5091314;28;20486;-67
2022/12/27 08:20:52;;;;;;;14.45;8.75;;;358.40;2329.60;;;;;;5091347;28;20482;-70
2022/12/27 08:23:18;;;;;;;12.15;7.72;;;358.40;2329.60;;;;;;5091149;28;20032;-69
2022/12/27 08:25:44;;;;;;;9.93;7.60;;;358.40;2329.60;;;;;;5091414;28;20107;-70
2022/12/27 08:28:12;;;;;;;10.25;7.95;;;358.40;2329.60;;;;;;5091314;28;20024;-71
2022/12/27 08:30:40;;;;;;;13.43;8.55;;;333.70;2329.60;;;;;;5091068;28;20036;-71
2022/12/27 08:33:06;;;;;;;16.58;12.85;;;333.60;2329.60;;;;;;5091017;28;20110;-69
2022/12/27 08:35:32;;;;;;;24.35;19.33;;;333.60;2329.60;;;;;;5091224;28;20028;-68
2022/12/27 08:38:01;;;;;;;29.42;21.48;;;333.50;2329.60;;;;;;5090818;28;20101;-70
2022/12/27 08:40:27;;;;;;;39.28;30.80;;;333.60;2329.60;;;;;;5090882;28;20466;-70
2022/12/27 08:42:52;;;;;;;48.33;43.13;;;333.60;2329.60;;;;;;5090968;28;20040;-68
2022/12/27 08:45:18;;;;;;;40.33;35.92;;;333.50;2329.60;;;;;;5090930;28;20032;-71
2022/12/27 08:47:44;;;;;;;28.88;22.90;;;333.60;2329.60;;;;;;5091199;28;20028;-68
2022/12/27 08:50:09;;;;;;;15.75;12.60;;;333.40;2329.60;;;;;;5090556;28;20040;-65
2022/12/27 08:52:35;;;;;;;9.65;7.72;;;333.30;2329.60;;;;;;5090846;28;20072;-71
2022/12/27 08:55:02;;;;;;;13.32;10.80;;;333.30;2329.60;;;;;;5090792;28;20835;-68
2022/12/27 08:57:27;;;;;;;13.77;11.35;;;333.40;2329.60;;;;;;5090109;28;20088;-65
2022/12/27 08:59:53;;;;;;;25.50;17.73;;;333.50;2329.60;;;;;;5090611;28;20020;-69
2022/12/27 09:02:19;;;;;;;61.42;43.13;;;333.50;2329.60;;;;;;5090121;28;20077;-65
2022/12/27 09:04:44;;;;;;;117.15;73.38;;;333.60;2329.60;;;;;;5090583;28;20470;-71
2022/12/27 09:07:10;;;;;;;143.65;95.95;;;333.50;2329.60;;;;;;5089938;28;20028;-64
2022/12/27 09:09:36;;;;;;;54.67;39.13;;;333.60;2329.60;;;;;;5089477;28;20505;-64
2022/12/27 09:12:01;;;;;;;23.30;16.42;;;333.50;2329.60;;;;;;5090325;28;20340;-71
2022/12/27 09:14:27;;;;;;;16.55;12.60;;;333.40;2329.60;;;;;;5090172;28;20024;-70
2022/12/27 09:16:52;;;;;;;15.02;11.90;;;333.40;2329.60;;;;;;5090666;28;20055;-67
2022/12/27 09:19:18;;;;;;;23.38;20.65;;;333.40;2329.60;;;;;;5090359;28;20078;-70
2022/12/27 09:21:44;;;;;;;54.42;38.90;;;333.20;2329.60;;;;;;5090037;28;20541;-71
2022/12/27 09:24:11;;;;;;;87.55;63.35;;;333.20;2329.60;;;;;;5070044;28;20016;-70
2022/12/27 09:26:37;;;;;;;111.88;64.25;;;333.10;2329.60;;;;;;5085849;28;20420;-70
2022/12/27 09:29:03;;;;;;;88.82;50.28;;;333.20;2329.60;;;;;;5090296;28;20415;-66
2022/12/27 09:31:29;;;;;;;45.83;27.85;;;333.40;2329.60;;;;;;5090028;28;20070;-71
2022/12/27 09:33:55;;;;;;;52.35;35.85;;;333.50;2329.60;;;;;;5090204;28;20103;-66
2022/12/27 09:36:24;;;;;;;38.95;32.55;;;333.40;2329.60;;;;;;5088550;28;20036;-70
2022/12/27 09:38:52;;;;;;;42.45;32.55;;;333.20;2329.60;;;;;;5090122;28;20028;-69
2022/12/27 09:41:32;;;;;;;82.82;55.28;;;333.20;2329.60;;;;;;5090218;28;20380;-70
2022/12/27 09:44:19;;;;;;;234.13;147.82;;;333.20;2329.60;;;;;;5089498;28;20511;-71
2022/12/27 09:47:04;;;;;;;49.10;34.47;;;333.20;2329.60;;;;;;5090154;28;20020;-66
2022/12/27 09:49:55;;;;;;;19.48;14.75;;;333.10;2329.60;;;;;;5090096;28;20032;-71
2022/12/27 09:52:31;;;;;;;17.40;13.13;;;332.90;2329.60;;;;;;5090156;28;20067;-70
2022/12/27 09:54:56;;;;;;;18.63;16.20;;;332.80;2329.60;;;;;;5089834;28;20028;-66
2022/12/27 09:57:41;;;;;;;17.75;12.10;;;308.10;2304.00;;;;;;5090135;28;20053;-71
2022/12/27 10:00:18;;;;;;;50.42;35.33;;;332.80;2329.60;;;;;;5089937;28;20048;-69
2022/12/27 10:02:45;;;;;;;69.90;44.33;;;333.00;2329.60;;;;;;5090380;28;20028;-71
2022/12/27 10:05:24;;;;;;;80.68;52.03;;;333.10;2329.60;;;;;;5090075;28;20027;-68
2022/12/27 10:08:12;;;;;;;102.05;74.40;;;333.10;2329.60;;;;;;5090833;28;20031;-70
2022/12/27 10:10:48;;;;;;;110.53;86.30;;;333.10;2329.60;;;;;;5093586;28;20032;-68
2022/12/27 10:13:55;;;;;;;63.53;51.05;;;333.20;2329.60;;;;;;5093916;28;20149;-64
2022/12/27 10:16:21;;;;;;;39.15;31.17;;;333.40;2329.60;;;;;;5011817;28;20021;-70
2022/12/27 10:19:28;;;;;;;25.30;22.40;;;333.20;2329.60;;;;;;5011354;28;20399;-71
2022/12/27 10:22:07;;;;;;;55.80;40.60;;;333.10;2329.60;;;;;;4933638;29;20102;-70
2022/12/27 10:24:49;;;;;;;49.60;37.85;;;333.10;2329.60;;;;;;4933380;29;20038;-69
2022/12/27 10:27:24;;;;;;;51.75;31.45;;;333.10;2329.60;;;;;;4933213;29;20027;-65
2022/12/27 10:29:58;;;;;;;23.45;17.23;;;333.00;2329.60;;;;;;4933168;29;20052;-69
2022/12/27 10:32:24;;;;;;;20.38;17.08;;;333.00;2329.60;;;;;;4933730;29;20023;-71
2022/12/27 10:35:15;;;;;;;20.75;17.00;;;333.00;2329.60;;;;;;4933579;29;20036;-68
2022/12/27 10:37:41;;;;;;;13.63;11.30;;;333.00;2329.60;;;;;;4932775;29;20054;-67
2022/12/27 10:40:16;;;;;;;12.07;8.93;;;332.90;2329.60;;;;;;4932291;29;20382;-67
2022/12/27 10:42:47;;;;;;;15.80;13.52;;;332.90;2329.60;;;;;;4932938;29;20052;-71
2022/12/27 10:45:35;;;;;;;13.88;10.90;;;333.00;2329.60;;;;;;4933978;29;20528;-66
2022/12/27 10:48:30;;;;;;;12.13;9.27;;;333.20;2329.60;;;;;;4933641;29;20079;-70
2022/12/27 10:51:05;;;;;;;14.32;10.13;;;333.20;2329.60;;;;;;4940958;29;20043;-69
2022/12/27 10:53:32;;;;;;;21.27;18.88;;;333.00;1996.80;;;;;;4952743;29;20066;-71
2022/12/27 10:56:37;;;;;;;27.48;21.58;;;332.90;2329.60;;;;;;4986798;28;20042;-71
2022/12/27 10:59:15;;;;;;;45.97;39.22;;;333.10;2329.60;;;;;;5010809;28;20496;-65
2022/12/27 11:01:42;;;;;;;60.60;45.75;;;333.40;2329.60;;;;;;5010964;28;20558;-67
2022/12/27 11:04:15;;;;;;;43.13;31.83;;;333.50;2329.60;;;;;;5010753;28;20026;-71
2022/12/27 11:06:42;;;;;;;33.47;29.52;;;333.50;2329.60;;;;;;5010960;28;20030;-69
2022/12/27 11:09:25;;;;;;;60.70;49.17;;;333.50;2329.60;;;;;;5010283;28;20061;-70
2022/12/27 11:12:13;;;;;;;57.55;47.42;;;333.30;2329.60;;;;;;5010702;28;20046;-70
2022/12/27 11:14:58;;;;;;;60.75;50.28;;;333.20;2329.60;;;;;;5010485;28;20033;-68
2022/12/27 11:17:29;;;;;;;50.30;39.83;;;333.20;2329.60;;;;;;5010361;28;20022;-70
2022/12/27 11:19:57;;;;;;;44.40;35.33;;;333.20;2329.60;;;;;;5010180;28;20109;-71
2022/12/27 11:22:23;;;;;;;33.05;26.75;;;333.10;2329.60;;;;;;5010017;28;20732;-70
2022/12/27 11:24:59;;;;;;;28.52;22.50;;;333.20;2329.60;;;;;;5010310;28;20033;-67
2022/12/27 11:27:27;;;;;;;49.78;38.30;;;333.20;2329.60;;;;;;5043740;28;20124;-71
2022/12/27 11:29:56;;;;;;;50.60;42.45;;;333.20;2329.60;;;;;;5080134;28;20398;-71
2022/12/27 11:32:22;;;;;;;46.67;35.50;;;333.40;2329.60;;;;;;5092149;28;20065;-69
2022/12/27 11:34:52;;;;;;;25.63;17.98;;;333.50;2329.60;;;;;;5092397;28;20107;-69
2022/12/27 11:37:21;;;;;;;17.42;14.60;;;333.50;2329.60;;;;;;5092354;28;20047;-70
2022/12/27 11:39:48;;;;;;;65.22;49.40;;;333.40;2329.60;;;;;;5092157;28;20126;-70
2022/12/27 11:42:41;;;;;;;15.95;11.93;;;333.60;2329.60;;;;;;5092029;28;20036;-68
2022/12/27 11:45:32;;;;;;;10.70;6.95;;;333.60;2329.60;;;;;;5091952;28;20032;-68
2022/12/27 11:48:01;;;;;;;11.65;9.18;;;333.60;2329.60;;;;;;5091794;28;20024;-71
2022/12/27 11:50:27;;;;;;;9.25;7.25;;;333.40;2329.60;;;;;;5091939;28;20036;-71
2022/12/27 11:53:19;;;;;;;11.98;10.82;;;333.50;2329.60;;;;;;5090398;28;20355;-71
2022/12/27 11:56:24;;;;;;;10.27;6.90;;;333.50;2329.60;;;;;;5092003;28;20017;-68
2022/12/27 11:58:55;;;;;;;8.45;6.40;;;333.20;2329.60;;;;;;5091002;28;20541;-69
2022/12/27 12:01:59;;;;;;;13.98;8.57;;;333.10;2329.60;;;;;;5091927;28;20039;-69
2022/12/27 12:04:33;;;;;;;12.00;7.63;;;333.20;2329.60;;;;;;5091861;28;20024;-71
2022/12/27 12:07:45;;;;;;;12.07;8.50;;;333.20;2329.60;;;;;;5091686;28;20249;-66
2022/12/27 12:10:31;;;;;;;11.95;8.77;;;333.10;2329.60;;;;;;4931854;29;20138;-69
2022/12/27 12:13:08;;;;;;;10.50;7.68;;;333.00;2329.60;;;;;;4931972;29;20039;-70
2022/12/27 12:15:52;;;;;;;9.70;6.93;;;332.90;2329.60;;;;;;4932035;29;20032;-68
2022/12/27 12:18:57;;;;;;;10.52;6.97;;;332.80;2329.60;;;;;;4931954;29;20051;-70
2022/12/27 12:22:00;;;;;;;10.63;6.43;;;333.10;2329.60;;;;;;4931897;29;20035;-71
2022/12/27 12:24:38;;;;;;;11.23;6.95;;;308.10;2304.00;;;;;;4931705;29;20028;-69
2022/12/27 12:27:09;;;;;;;13.48;9.10;;;308.10;2304.00;;;;;;4931818;29;20050;-71
2022/12/27 12:30:08;;;;;;;13.38;8.80;;;308.10;2304.00;;;;;;4915857;29;20589;-68
2022/12/27 12:32:57;;;;;;;12.05;8.77;;;332.80;2329.60;;;;;;4931762;29;20036;-71
2022/12/27 12:35:44;;;;;;;13.88;9.80;;;308.10;2304.00;;;;;;4931737;29;20035;-69
2022/12/27 12:38:33;;;;;;;14.55;10.57;;;308.10;2304.00;;;;;;4931352;29;20114;-71
2022/12/27 12:41:04;;;;;;;15.82;11.68;;;332.80;2329.60;;;;;;4931367;29;20052;-66
2022/12/27 12:43:48;;;;;;;16.00;11.38;;;332.80;2329.60;;;;;;4931134;29;20051;-71
2022/12/27 12:46:13;;;;;;;;;;;332.90;2329.60;;;;;;4955021;28;20037;-70
2022/12/27 12:49:06;;;;;;;16.75;12.88;;;333.00;2329.60;;;;;;5089727;28;19904;-69
2022/12/27 12:51:40;;;;;;;15.47;11.33;;;333.10;2329.60;;;;;;5090763;28;20040;-70
2022/12/27 12:54:36;;;;;;;21.98;13.27;;;332.90;2329.60;;;;;;5090426;28;20028;-68
2022/12/27 12:57:05;;;;;;;14.13;10.57;;;332.80;2329.60;;;;;;5091022;28;20079;-69
2022/12/27 13:00:00;;;;;;;34.47;23.00;;;308.10;2304.00;;;;;;5091104;28;20020;-70
2022/12/27 13:02:53;;;;;;;24.33;19.52;;;308.10;2304.00;;;;;;5090698;28;20089;-68
2022/12/27 13:05:37;;;;;;;210.30;155.80;;;332.80;2329.60;;;;;;5090440;28;20024;-70
2022/12/27 13:08:34;;;;;;;258.08;183.60;;;333.00;2329.60;;;;;;5090600;28;20466;-70
2022/12/27 13:11:18;;;;;;;183.30;131.60;;;332.90;2329.60;;;;;;5090297;28;20535;-71
2022/12/27 13:13:50;;;;;;;58.13;42.65;;;333.00;2329.60;;;;;;5090817;28;20016;-71
2022/12/27 13:16:34;;;;;;;122.03;89.68;;;333.00;2329.60;;;;;;5090310;28;20028;-71
2022/12/27 13:19:35;;;;;;;120.10;98.20;;;333.00;2329.60;;;;;;5090433;28;20019;-70
2022/12/27 13:22:45;;;;;;;105.60;82.88;;;333.00;2329.60;;;;;;5008561;28;20512;-71
2022/12/27 13:25:49;;;;;;;86.50;64.70;;;333.00;2329.60;;;;;;4930818;29;20043;-70
2022/12/27 13:28:53;;;;;;;56.25;40.00;;;333.00;2329.60;;;;;;4931123;29;20035;-71
2022/12/27 13:31:51;;;;;;;39.00;28.85;;;332.90;2329.60;;;;;;4930220;29;20126;-70
2022/12/27 13:34:32;;;;;;;28.02;20.02;;;333.00;2329.60;;;;;;4930610;29;20502;-69
2022/12/27 13:37:18;;;;;;;17.15;13.27;;;333.10;2329.60;;;;;;4930522;29;20075;-70
2022/12/27 13:40:04;;;;;;;27.23;18.38;;;333.00;2329.60;;;;;;4930638;29;20039;-69
2022/12/27 13:42:51;;;;;;;24.65;16.05;;;333.00;2329.60;;;;;;4932492;29;20088;-72
2022/12/27 13:45:33;;;;;;;41.78;28.80;;;333.00;2329.60;;;;;;4934785;29;20039;-71
2022/12/27 13:48:17;;;;;;;45.90;34.45;;;333.00;2329.60;;;;;;4934518;29;20036;-71
2022/12/27 13:51:06;;;;;;;50.42;39.22;;;333.00;2329.60;;;;;;4934685;29;20039;-71
2022/12/27 13:53:50;;;;;;;26.08;19.55;;;333.00;2329.60;;;;;;4878042;29;20545;-71
2022/12/27 13:56:41;;;;;;;10.18;7.75;;;333.00;2329.60;;;;;;4877999;29;20037;-70
2022/12/27 13:59:24;;;;;;;16.65;12.10;;;332.80;2329.60;;;;;;4913248;29;20031;-71
2022/12/27 14:02:08;;;;;;;37.22;29.13;;;308.10;2304.00;;;;;;4988193;28;20070;-70